Time;durP1;ratioP1;P1;durP2;ratioP2;P2;SDS_P1;SDS_P2;PMS_P1;PMS_P2;Temp;Humidity;BMP_temperature;BMP_pressure;BME280_temperature;BME280_humidity;BME280_pressure;Samples;Min_cycle;Max_cycle;Signal;HPM_P1;HPM_P2
2021/03/20 00:00:19;;;;;;;4.53;1.30;;;;;;;-5.25;100.00;102157.88;4953393;28;20404;-66
2021/03/20 00:02:45;;;;;;;2.97;1.30;;;;;;;-5.26;100.00;102158.66;4985167;28;20046;-65
2021/03/20 00:05:12;;;;;;;2.13;1.43;;;;;;;-5.27;100.00;102145.69;4987119;28;20038;-66
2021/03/20 00:07:39;;;;;;;3.20;1.50;;;;;;;-5.29;100.00;102147.28;4960723;28;20046;-65
2021/03/20 00:10:07;;;;;;;2.93;1.20;;;;;;;-5.32;100.00;102137.63;4963531;28;20038;-65
2021/03/20 00:12:34;;;;;;;3.17;1.30;;;;;;;-5.36;100.00;102137.34;4979664;28;20092;-66
2021/03/20 00:15:00;;;;;;;3.33;1.23;;;;;;;-5.39;100.00;102133.75;4982951;28;20115;-66
2021/03/20 00:17:27;;;;;;;4.40;1.50;;;;;;;-5.38;100.00;102151.00;4985272;28;20038;-66
2021/03/20 00:19:53;;;;;;;1.60;1.20;;;;;;;-5.39;100.00;102153.47;4982953;28;20414;-66
2021/03/20 00:22:19;;;;;;;2.57;1.53;;;;;;;-5.39;100.00;102161.19;4965590;28;20050;-66
2021/03/20 00:24:46;;;;;;;4.90;1.43;;;;;;;-5.41;100.00;102153.38;4982460;28;20038;-66
2021/03/20 00:27:12;;;;;;;2.67;1.30;;;;;;;-5.42;100.00;102156.72;4984015;28;20042;-66
2021/03/20 00:29:38;;;;;;;2.43;1.17;;;;;;;-5.41;100.00;102155.03;4981403;28;20115;-66
2021/03/20 00:32:04;;;;;;;2.87;1.30;;;;;;;-5.39;100.00;102145.72;4984621;28;20046;-66
2021/03/20 00:34:31;;;;;;;3.27;1.30;;;;;;;-5.34;100.00;102156.34;4950271;28;20042;-66
2021/03/20 00:36:57;;;;;;;3.20;1.60;;;;;;;-5.30;100.00;102153.19;4975533;28;20046;-66
2021/03/20 00:39:23;;;;;;;3.60;1.33;;;;;;;-5.26;100.00;102158.66;4968806;28;20619;-65
2021/03/20 00:41:49;;;;;;;2.33;1.30;;;;;;;-5.21;100.00;102161.56;4975722;28;20138;-65
2021/03/20 00:44:15;;;;;;;3.17;1.50;;;;;;;-5.20;100.00;102163.34;4963576;28;20535;-66
2021/03/20 00:46:42;;;;;;;2.10;1.40;;;;;;;-5.17;100.00;102159.28;4964357;28;20054;-66
2021/03/20 00:49:08;;;;;;;2.13;1.40;;;;;;;-5.14;100.00;102150.84;4962726;28;20046;-66
2021/03/20 00:51:34;;;;;;;3.47;1.50;;;;;;;-5.11;100.00;102158.78;4976842;28;20046;-66
2021/03/20 00:54:00;;;;;;;2.63;1.57;;;;;;;-5.06;100.00;102154.81;4980276;28;20042;-66
2021/03/20 00:56:26;;;;;;;3.30;1.60;;;;;;;-5.01;100.00;102147.41;4948028;28;20070;-66
2021/03/20 00:58:53;;;;;;;3.00;1.87;;;;;;;-4.99;100.00;102144.13;4974159;28;20522;-66
2021/03/20 01:01:21;;;;;;;2.80;1.50;;;;;;;-4.97;100.00;102141.66;4963643;28;20524;-66
2021/03/20 01:03:49;;;;;;;2.47;1.37;;;;;;;-4.94;100.00;102142.75;4976811;28;20053;-66
2021/03/20 01:06:19;;;;;;;2.57;1.13;;;;;;;-4.93;100.00;102147.13;4955965;28;20042;-66
2021/03/20 01:08:49;;;;;;;2.55;1.58;;;;;;;-4.91;100.00;102152.38;4943345;28;20074;-67
2021/03/20 01:11:15;;;;;;;5.83;2.33;;;;;;;-4.85;100.00;102150.19;4959667;28;20460;-66
2021/03/20 01:13:42;;;;;;;3.87;2.43;;;;;;;-4.83;100.00;102143.44;4958020;28;20858;-66
2021/03/20 01:16:09;;;;;;;4.00;1.53;;;;;;;-4.80;100.00;102133.34;4957474;28;20042;-66
2021/03/20 01:18:35;;;;;;;3.20;2.17;;;;;;;-4.76;100.00;102135.31;4948625;28;20420;-66
2021/03/20 01:21:02;;;;;;;3.77;1.63;;;;;;;-4.73;100.00;102125.19;4961167;28;20448;-65
2021/03/20 01:23:29;;;;;;;2.83;1.53;;;;;;;-4.73;100.00;102127.78;4962576;28;20097;-66
2021/03/20 01:25:55;;;;;;;2.83;1.67;;;;;;;-4.71;100.00;102128.75;4955781;28;20455;-66
2021/03/20 01:28:30;;;;;;;3.90;1.90;;;;;;;-4.71;100.00;102139.06;4975956;28;20050;-66
2021/03/20 01:30:56;;;;;;;3.17;1.70;;;;;;;-4.71;100.00;102133.91;4933761;28;20108;-66
2021/03/20 01:33:23;;;;;;;3.37;1.50;;;;;;;-4.72;100.00;102129.56;4977037;28;20519;-66
2021/03/20 01:35:49;;;;;;;2.33;1.57;;;;;;;-4.69;100.00;102122.03;4981224;28;20045;-66
2021/03/20 01:38:16;;;;;;;4.93;1.60;;;;;;;-4.66;100.00;102118.75;4975861;28;20034;-66
2021/03/20 01:40:46;;;;;;;2.00;1.47;;;;;;;-4.63;100.00;102124.09;4978973;28;20054;-66
2021/03/20 01:43:14;;;;;;;3.20;1.50;;;;;;;-4.63;100.00;102109.53;4961728;28;20128;-66
2021/03/20 01:45:40;;;;;;;3.83;1.63;;;;;;;-4.61;100.00;102118.28;4965330;28;20093;-66
2021/03/20 01:48:25;;;;;;;3.03;1.70;;;;;;;-4.59;100.00;102115.78;4978613;28;20480;-66
2021/03/20 01:50:54;;;;;;;2.00;1.50;;;;;;;-4.60;100.00;102120.06;4979395;28;20070;-66
2021/03/20 01:53:41;;;;;;;2.57;1.60;;;;;;;-4.57;100.00;102120.22;4976737;28;20035;-66
2021/03/20 01:56:11;;;;;;;2.57;1.50;;;;;;;-4.57;100.00;102119.34;4940039;28;20046;-66
2021/03/20 01:58:39;;;;;;;3.27;1.70;;;;;;;-4.57;100.00;102124.50;4961107;28;20038;-65
2021/03/20 02:01:24;;;;;;;3.50;1.53;;;;;;;-4.56;100.00;102137.50;4961922;28;20070;-66
2021/03/20 02:03:51;;;;;;;3.17;1.67;;;;;;;-4.55;100.00;102141.84;4945897;28;20123;-66
2021/03/20 02:06:19;;;;;;;5.13;2.13;;;;;;;-4.55;100.00;102128.94;4939761;28;20433;-66
2021/03/20 02:08:46;;;;;;;2.80;1.67;;;;;;;-4.55;100.00;102128.94;4942962;28;20103;-66
2021/03/20 02:11:16;;;;;;;3.47;1.60;;;;;;;-4.55;100.00;102116.06;4947024;28;20047;-66
2021/03/20 02:14:07;;;;;;;2.77;1.53;;;;;;;-4.53;100.00;102109.34;4946727;28;20071;-66
2021/03/20 02:16:57;;;;;;;3.30;1.60;;;;;;;-4.50;100.00;102121.53;4958282;28;20098;-65
2021/03/20 02:19:44;;;;;;;2.40;1.30;;;;;;;-4.50;100.00;102112.91;4957310;28;20272;-66
2021/03/20 02:22:24;;;;;;;3.47;1.67;;;;;;;-4.50;100.00;102111.22;4945393;28;20126;-66
2021/03/20 02:25:24;;;;;;;3.37;1.50;;;;;;;-4.51;100.00;102108.53;4937305;28;20038;-65
2021/03/20 02:28:32;;;;;;;2.30;1.17;;;;;;;-4.51;100.00;102114.59;4918420;28;20043;-66
2021/03/20 02:31:36;;;;;;;2.87;1.77;;;;;;;-4.52;100.00;102110.22;4928147;28;20051;-66
2021/03/20 02:34:16;;;;;;;2.77;1.47;;;;;;;-4.50;100.00;102112.91;4960460;28;20587;-66
2021/03/20 02:37:09;;;;;;;3.80;1.80;;;;;;;-4.48;100.00;102099.28;4945417;28;20043;-66
2021/03/20 02:39:44;;;;;;;2.67;1.70;;;;;;;-4.48;100.00;102116.47;4949382;28;20632;-66
2021/03/20 02:42:43;;;;;;;2.73;1.47;;;;;;;-4.47;100.00;102115.66;4946840;28;20126;-66
2021/03/20 02:45:28;;;;;;;2.27;1.40;;;;;;;-4.47;100.00;102108.81;4957437;28;20054;-66
2021/03/20 02:47:57;;;;;;;4.50;1.45;;;;;;;-4.47;100.00;102105.34;4932645;28;20111;-66
2021/03/20 02:50:31;;;;;;;2.50;1.60;;;;;;;-4.47;100.00;102106.22;4939952;28;20050;-66
2021/03/20 02:53:17;;;;;;;2.92;1.67;;;;;;;-4.47;100.00;102107.91;4945908;28;20444;-66
2021/03/20 02:55:47;;;;;;;1.60;1.10;;;;;;;-4.47;100.00;102098.50;4928395;28;20058;-66
2021/03/20 02:58:42;;;;;;;3.83;1.80;;;;;;;-4.47;99.72;102095.91;4994062;23;20033;-70
2021/03/20 03:01:12;;;;;;;5.10;1.70;;;;;;;-4.44;100.00;102105.56;5018762;28;20103;-71
2021/03/20 03:03:41;;;;;;;2.90;1.47;;;;;;;-4.44;99.95;102102.97;5015307;28;20592;-69
2021/03/20 03:06:12;;;;;;;2.27;1.30;;;;;;;-4.45;99.89;102094.34;5035352;28;20041;-69
2021/03/20 03:08:43;;;;;;;3.53;1.40;;;;;;;-4.44;99.70;102102.97;4995735;28;20049;-70
2021/03/20 03:11:21;;;;;;;2.10;1.60;;;;;;;-4.43;99.84;102105.66;5026608;28;20166;-70
2021/03/20 03:13:55;;;;;;;3.53;1.40;;;;;;;-4.42;99.42;102109.13;5008867;28;20037;-70
2021/03/20 03:16:30;;;;;;;3.53;1.65;;;;;;;-4.42;99.53;102111.69;4992954;28;20041;-70
2021/03/20 03:19:00;;;;;;;4.27;2.37;;;;;;;-4.41;99.71;102110.91;5028199;28;20037;-69
2021/03/20 03:21:29;;;;;;;2.57;1.77;;;;;;;-4.42;99.28;102114.28;5024040;28;20041;-69
2021/03/20 03:23:55;;;;;;;2.27;1.20;;;;;;;-4.43;99.12;102107.34;5012721;28;20107;-70
2021/03/20 03:26:28;;;;;;;2.70;1.50;;;;;;;-4.41;99.05;102110.91;5021650;28;20076;-70
2021/03/20 03:29:03;;;;;;;2.80;1.10;;;;;;;-4.41;99.02;102118.63;5022520;28;20037;-69
2021/03/20 03:31:33;;;;;;;3.75;1.40;;;;;;;-4.42;99.25;102129.75;5025248;28;20040;-70
2021/03/20 03:34:05;;;;;;;3.37;1.50;;;;;;;-4.43;99.53;102122.81;5008750;28;20055;-70
2021/03/20 03:36:43;;;;;;;1.90;1.30;;;;;;;-4.44;99.36;102121.91;5006032;28;20090;-69
2021/03/20 03:39:22;;;;;;;3.40;1.50;;;;;;;-4.43;99.33;102113.38;5027885;28;20049;-69
2021/03/20 03:41:48;;;;;;;2.73;1.40;;;;;;;-4.42;99.07;102115.16;4994518;28;20179;-70
2021/03/20 03:44:14;;;;;;;2.40;1.50;;;;;;;-4.42;98.93;102109.13;4998648;28;20068;-69
2021/03/20 03:46:44;;;;;;;2.47;1.50;;;;;;;-4.42;98.89;102115.16;5011062;28;20115;-70
2021/03/20 03:49:14;;;;;;;3.13;1.30;;;;;;;-4.42;98.94;102114.28;5040642;28;20408;-70
2021/03/20 03:51:40;;;;;;;1.97;1.47;;;;;;;-4.41;99.32;102105.72;5013236;28;20122;-70
2021/03/20 03:54:06;;;;;;;2.40;1.23;;;;;;;-4.40;99.53;102108.41;5029946;28;20033;-70
2021/03/20 03:56:59;;;;;;;2.23;1.40;;;;;;;-4.41;99.25;102109.22;5023808;28;20777;-69
2021/03/20 03:59:53;;;;;;;3.07;1.33;;;;;;;-4.41;99.29;102113.47;4999664;28;20111;-70
2021/03/20 04:02:30;;;;;;;2.25;1.33;;;;;;;-4.42;99.74;102110.00;5009701;28;20430;-70
2021/03/20 04:05:11;;;;;;;2.20;1.50;;;;;;;-4.42;99.80;102107.44;5012955;28;20045;-69
2021/03/20 04:07:56;;;;;;;2.67;1.30;;;;;;;-4.42;99.68;102104.84;5011377;28;20043;-70
2021/03/20 04:10:49;;;;;;;2.80;1.50;;;;;;;-4.41;99.55;102105.72;5046250;28;20052;-70
2021/03/20 04:13:43;;;;;;;2.70;1.43;;;;;;;-4.41;99.69;102096.31;4995819;28;20115;-70
2021/03/20 04:16:20;;;;;;;4.47;1.60;;;;;;;-4.39;99.77;102091.25;5043789;28;20087;-69
2021/03/20 04:19:18;;;;;;;3.70;1.60;;;;;;;-4.36;99.86;102101.78;5027598;28;20044;-70
2021/03/20 04:21:58;;;;;;;4.43;1.70;;;;;;;-4.35;99.76;102095.81;5041246;28;20049;-70
2021/03/20 04:24:32;;;;;;;2.80;1.70;;;;;;;-4.36;99.78;102100.09;5010445;28;20599;-70
2021/03/20 04:27:08;;;;;;;2.90;1.70;;;;;;;-4.34;99.76;102102.75;5037507;28;20462;-71
2021/03/20 04:29:58;;;;;;;3.00;1.60;;;;;;;-4.33;99.92;102101.94;5026722;28;20103;-71
2021/03/20 04:32:28;;;;;;;3.87;1.70;;;;;;;-4.33;99.83;102104.53;5043794;28;20149;-70
2021/03/20 04:35:09;;;;;;;3.77;1.60;;;;;;;-4.33;100.00;102099.38;5020593;28;20102;-70
2021/03/20 04:37:48;;;;;;;2.57;1.40;;;;;;;-4.33;100.00;102099.38;5007889;28;20041;-70
2021/03/20 04:40:37;;;;;;;4.33;1.33;;;;;;;-4.33;100.00;102100.25;5019812;28;20040;-69
2021/03/20 04:43:04;;;;;;;3.60;2.07;;;;;;;-4.33;100.00;102104.53;5019394;28;20041;-71
2021/03/20 04:45:43;;;;;;;3.57;1.90;;;;;;;-4.32;99.97;102106.31;5041166;28;20037;-70
2021/03/20 04:48:19;;;;;;;5.23;2.43;;;;;;;-4.30;99.96;102104.72;5003011;28;20041;-70
2021/03/20 04:50:48;;;;;;;3.57;1.80;;;;;;;-4.30;99.65;102099.56;5025710;28;20037;-71
2021/03/20 04:53:14;;;;;;;4.10;2.30;;;;;;;-4.29;100.00;102099.66;5009575;28;20412;-70
2021/03/20 04:55:41;;;;;;;3.03;1.97;;;;;;;-4.27;100.00;102092.91;5022555;28;20169;-70
2021/03/20 04:58:16;;;;;;;4.53;2.37;;;;;;;-4.22;99.94;102098.34;5012196;28;20032;-70
2021/03/20 05:00:46;;;;;;;3.63;2.10;;;;;;;-4.21;99.50;102100.13;5022050;28;20040;-70
2021/03/20 05:03:26;;;;;;;3.27;1.90;;;;;;;-4.18;99.60;102104.59;5015991;28;20029;-69
2021/03/20 05:06:08;;;;;;;2.80;1.77;;;;;;;-4.16;100.00;102108.16;5015881;28;20102;-70
2021/03/20 05:08:45;;;;;;;4.00;1.80;;;;;;;-4.14;99.06;102098.81;4987604;28;20098;-70
2021/03/20 05:11:37;;;;;;;3.40;1.83;;;;;;;-4.12;98.82;102099.78;5026522;28;20052;-71
2021/03/20 05:14:11;;;;;;;4.20;2.23;;;;;;;-4.09;98.69;102093.16;5011140;28;20044;-70
2021/03/20 05:16:41;;;;;;;3.47;2.60;;;;;;;-4.05;98.51;102100.28;5024081;28;20048;-70
2021/03/20 05:19:08;;;;;;;5.27;2.43;;;;;;;-4.03;98.41;102106.44;5007796;28;20572;-70
2021/03/20 05:21:37;;;;;;;3.63;2.10;;;;;;;-4.01;98.32;102102.25;5024065;28;20045;-69
2021/03/20 05:24:04;;;;;;;5.43;3.00;;;;;;;-3.98;98.34;102105.00;5025120;28;20041;-70
2021/03/20 05:26:31;;;;;;;5.10;2.20;;;;;;;-3.95;98.84;102104.34;5024208;28;20034;-70
2021/03/20 05:28:58;;;;;;;3.03;1.73;;;;;;;-3.92;98.73;102101.03;5027359;28;20509;-71
2021/03/20 05:31:26;;;;;;;5.53;2.63;;;;;;;-3.88;98.22;102103.00;5041720;28;20426;-69
2021/03/20 05:33:53;;;;;;;5.63;2.37;;;;;;;-3.85;98.40;102110.94;5005381;28;20124;-70
2021/03/20 05:36:19;;;;;;;7.10;3.00;;;;;;;-3.81;97.86;102118.06;5027220;28;20403;-70
2021/03/20 05:38:46;;;;;;;6.03;2.57;;;;;;;-3.78;97.50;102110.53;5008458;28;20071;-70
2021/03/20 05:41:30;;;;;;;5.80;2.10;;;;;;;-3.72;97.53;102108.28;5027849;28;20040;-70
2021/03/20 05:44:01;;;;;;;4.50;2.70;;;;;;;-3.66;97.05;102112.94;5014797;28;20038;-70
2021/03/20 05:46:39;;;;;;;5.63;2.57;;;;;;;-3.61;96.63;102122.75;5026404;28;20579;-69
2021/03/20 05:49:29;;;;;;;3.47;2.33;;;;;;;-3.55;96.42;102117.94;5008054;28;20146;-70
2021/03/20 05:52:07;;;;;;;7.43;2.77;;;;;;;-3.48;95.81;102124.38;5029684;28;20152;-70
2021/03/20 05:55:05;;;;;;;7.47;2.93;;;;;;;-3.41;95.63;102127.41;5045894;28;20887;-69
2021/03/20 05:57:42;;;;;;;3.87;2.10;;;;;;;-3.32;95.96;102121.00;5047112;28;20141;-70
2021/03/20 06:00:23;;;;;;;8.30;2.37;;;;;;;-3.24;94.87;102127.50;5007146;28;20042;-71
2021/03/20 06:03:18;;;;;;;5.73;2.73;;;;;;;-3.16;94.01;102121.09;5046670;28;20045;-70
2021/03/20 06:05:51;;;;;;;3.30;2.20;;;;;;;-3.09;93.30;102120.66;5016376;28;20075;-70
2021/03/20 06:08:27;;;;;;;5.13;2.13;;;;;;;-3.02;92.69;102125.38;5031368;28;20230;-70
2021/03/20 06:11:02;;;;;;;4.63;2.40;;;;;;;-2.94;92.49;102116.38;5023928;28;20037;-70
2021/03/20 06:14:13;;;;;;;5.73;2.13;;;;;;;-2.80;92.59;102121.41;5030549;28;20071;-70
2021/03/20 06:16:59;;;;;;;5.03;2.20;;;;;;;-2.68;91.58;102114.38;5044463;28;20067;-71
2021/03/20 06:19:44;;;;;;;3.70;1.67;;;;;;;-2.61;90.45;102112.22;5046788;28;20048;-70
2021/03/20 06:22:10;;;;;;;4.50;2.23;;;;;;;-2.45;90.05;102113.03;5030163;28;20482;-71
2021/03/20 06:25:01;;;;;;;2.97;1.90;;;;;;;-2.30;89.22;102112.19;5009133;28;20046;-71
2021/03/20 06:27:34;;;;;;;4.20;1.90;;;;;;;-2.20;88.13;102123.03;5044665;28;20071;-70
2021/03/20 06:30:23;;;;;;;3.53;1.87;;;;;;;-2.17;87.74;102111.19;5029077;28;20055;-71
2021/03/20 06:32:51;;;;;;;5.83;2.20;;;;;;;-2.06;87.42;102106.56;5021276;28;20552;-71
2021/03/20 06:35:17;;;;;;;4.20;1.67;;;;;;;-2.02;86.82;102106.81;5027564;28;20037;-71
2021/03/20 06:37:50;;;;;;;4.50;2.03;;;;;;;-1.92;85.47;102089.19;5021025;28;20053;-71
2021/03/20 06:40:28;;;;;;;4.30;1.73;;;;;;;-1.82;84.93;102084.56;5016780;28;20461;-71
2021/03/20 06:42:57;;;;;;;4.37;2.07;;;;;;;-1.62;84.08;102077.81;5025800;28;20045;-71
2021/03/20 06:45:29;;;;;;;4.70;2.27;;;;;;;-1.43;82.39;102069.25;5011520;28;20045;-72
2021/03/20 06:48:13;;;;;;;4.53;2.10;;;;;;;-1.07;80.97;102069.34;5029824;28;20045;-71
2021/03/20 06:50:46;;;;;;;;;;;;;;;-0.56;78.33;102065.75;5017734;28;20124;-71
2021/03/20 06:53:15;;;;;;;2.37;1.53;;;;;;;-0.08;76.86;102077.53;5012698;28;20305;-71
2021/03/20 06:55:46;;;;;;;4.20;1.50;;;;;;;0.36;75.90;102069.91;5027807;28;20279;-71
2021/03/20 06:58:47;;;;;;;3.63;1.57;;;;;;;0.74;72.96;102064.63;5022332;28;20037;-70
2021/03/20 07:01:23;;;;;;;2.60;1.70;;;;;;;0.96;71.06;102068.13;5028933;28;20490;-70
2021/03/20 07:03:49;;;;;;;4.97;1.70;;;;;;;0.82;67.92;102068.44;5024940;28;20456;-72
2021/03/20 07:06:42;;;;;;;3.23;2.20;;;;;;;1.33;68.59;102066.16;5045295;28;20033;-70
2021/03/20 07:09:08;;;;;;;2.60;1.60;;;;;;;1.56;66.10;102060.97;5004938;28;20617;-72
2021/03/20 07:11:38;;;;;;;4.67;1.80;;;;;;;1.65;65.13;102057.00;5036399;28;20422;-69
2021/03/20 07:14:40;;;;;;;3.40;1.50;;;;;;;2.15;64.93;102063.19;5005045;28;20037;-73
2021/03/20 07:17:10;;;;;;;2.50;1.77;;;;;;;2.77;63.90;102063.63;5040427;28;20379;-70
2021/03/20 07:19:56;;;;;;;3.23;1.40;;;;;;;3.50;61.33;102059.88;5014148;28;20048;-70
2021/03/20 07:22:39;;;;;;;2.70;1.60;;;;;;;4.03;56.19;102053.63;5041520;28;20044;-73
2021/03/20 07:25:52;;;;;;;2.27;1.40;;;;;;;4.69;58.02;102056.28;5025007;28;20029;-72
2021/03/20 07:28:21;;;;;;;3.13;1.63;;;;;;;4.76;52.42;102060.84;5017437;28;20703;-73
2021/03/20 07:30:59;;;;;;;3.07;1.93;;;;;;;4.45;50.66;102056.53;5027861;28;20045;-73
2021/03/20 07:33:32;;;;;;;2.93;1.80;;;;;;;4.41;57.30;102062.53;5043137;28;20048;-71
2021/03/20 07:36:26;;;;;;;4.80;1.63;;;;;;;5.58;52.00;102056.72;5041140;28;20064;-71
2021/03/20 07:39:19;;;;;;;2.63;1.30;;;;;;;6.47;50.32;102050.66;5024687;28;20056;-71
2021/03/20 07:41:50;;;;;;;9.07;4.73;;;;;;;7.13;49.26;102065.84;5009608;28;20649;-71
2021/03/20 07:45:25;;;;;;;5.73;3.33;;;;;;;6.82;46.54;102068.84;5021332;28;20068;-70
2021/03/20 07:47:55;;;;;;;5.43;4.20;;;;;;;6.76;44.50;102080.97;4996674;28;20037;-69
2021/03/20 07:50:23;;;;;;;2.27;1.60;;;;;;;7.24;47.11;102087.06;5025401;28;20060;-69
2021/03/20 07:53:03;;;;;;;2.33;1.33;;;;;;;8.08;47.67;102083.00;5037988;28;20095;-69
2021/03/20 07:55:36;;;;;;;2.30;1.40;;;;;;;9.34;46.88;102086.03;5025051;28;20060;-68
2021/03/20 07:58:03;;;;;;;1.23;1.13;;;;;;;9.65;41.33;102083.59;5010216;28;20040;-69
2021/03/20 08:00:35;;;;;;;3.08;1.00;;;;;;;8.84;34.69;102078.59;5020057;28;20453;-69
2021/03/20 08:03:04;;;;;;;1.67;1.38;;;;;;;9.47;37.84;102085.25;5026430;28;22116;-69
2021/03/20 08:05:39;;;;;;;1.20;1.00;;;;;;;9.92;34.08;102083.75;5019568;28;20607;-69
2021/03/20 08:08:26;;;;;;;2.15;1.20;;;;;;;8.98;37.40;102078.69;5007889;28;20051;-69
2021/03/20 08:10:57;;;;;;;3.03;1.30;;;;;;;10.15;41.18;102082.09;5021743;28;20103;-69
2021/03/20 08:13:34;;;;;;;2.03;1.23;;;;;;;10.97;35.46;102075.25;5021591;28;20037;-69
2021/03/20 08:16:00;;;;;;;3.10;1.77;;;;;;;11.49;34.63;102075.22;5022579;28;20722;-70
2021/03/20 08:18:28;;;;;;;2.10;1.50;;;;;;;9.83;37.91;102079.28;5025196;28;20072;-68
2021/03/20 08:21:00;;;;;;;2.60;1.23;;;;;;;8.97;35.92;102077.81;5021751;28;20068;-69
2021/03/20 08:24:01;;;;;;;1.83;1.15;;;;;;;8.90;36.06;102065.44;5024464;28;20127;-68
2021/03/20 08:26:41;;;;;;;1.27;1.00;;;;;;;8.41;36.62;102082.53;5043703;28;20209;-69
2021/03/20 08:29:35;;;;;;;3.15;1.23;;;;;;;8.01;40.79;102084.66;5041491;28;20036;-69
2021/03/20 08:32:16;;;;;;;3.10;1.35;;;;;;;8.40;38.80;102086.91;5038553;28;20120;-70
2021/03/20 08:35:03;;;;;;;2.45;1.27;;;;;;;8.16;36.15;102076.97;5004398;28;20037;-71
2021/03/20 08:38:02;;;;;;;2.72;1.27;;;;;;;7.14;39.54;102083.38;5022726;28;20048;-70
2021/03/20 08:40:54;;;;;;;3.22;1.25;;;;;;;7.28;40.42;102083.59;5005861;28;20472;-70
2021/03/20 08:43:38;;;;;;;2.92;1.42;;;;;;;7.21;40.25;102084.34;5011881;28;20041;-68
2021/03/20 08:46:26;;;;;;;2.58;1.05;;;;;;;7.25;41.58;102087.06;5016046;28;20041;-70
2021/03/20 08:49:15;;;;;;;1.10;1.00;;;;;;;7.05;42.74;102086.72;5037154;28;20776;-69
2021/03/20 08:52:03;;;;;;;1.33;1.07;;;;;;;6.99;43.41;102089.28;5020126;28;20057;-69
2021/03/20 08:54:53;;;;;;;4.87;1.90;;;;;;;7.31;42.67;102084.56;5032268;28;20061;-69
2021/03/20 08:57:25;;;;;;;1.80;1.00;;;;;;;6.95;40.45;102086.56;5017874;28;20045;-69
2021/03/20 08:59:56;;;;;;;1.53;1.13;;;;;;;7.09;37.97;102094.69;5034503;28;20575;-69
2021/03/20 09:02:22;;;;;;;1.47;1.00;;;;;;;6.80;38.96;102083.66;5022813;28;20702;-69
2021/03/20 09:04:51;;;;;;;1.77;0.97;;;;;;;6.73;40.87;102094.06;5040717;28;20500;-69
2021/03/20 09:07:23;;;;;;;2.43;1.00;;;;;;;6.94;40.84;102090.03;5011404;28;20059;-69
2021/03/20 09:09:59;;;;;;;1.43;0.93;;;;;;;7.08;40.49;102096.44;5024830;28;20444;-69
2021/03/20 09:12:35;;;;;;;1.80;1.20;;;;;;;6.64;45.57;102104.41;5018725;28;20045;-72
2021/03/20 09:15:08;;;;;;;3.17;1.30;;;;;;;6.61;42.45;102095.56;5022226;28;20692;-69
2021/03/20 09:17:38;;;;;;;2.00;1.00;;;;;;;6.44;41.29;102097.88;5030462;28;20044;-74
2021/03/20 09:20:22;;;;;;;1.80;1.43;;;;;;;6.41;40.94;102103.06;5026882;28;20056;-73
2021/03/20 09:22:49;;;;;;;1.40;1.05;;;;;;;6.28;41.76;102093.19;5045764;28;20037;-74
2021/03/20 09:25:22;;;;;;;1.73;1.30;;;;;;;6.41;43.21;102100.44;5007999;28;20045;-73
2021/03/20 09:28:13;;;;;;;2.93;1.20;;;;;;;6.16;43.93;102099.97;5004893;28;20045;-72
2021/03/20 09:30:47;;;;;;;3.30;1.30;;;;;;;5.68;45.62;102102.38;5014996;28;20041;-75
2021/03/20 09:33:19;;;;;;;2.00;1.23;;;;;;;6.43;45.58;102088.22;5025237;28;20067;-73
2021/03/20 09:35:55;;;;;;;2.03;1.10;;;;;;;6.73;40.39;102090.56;5016521;28;20045;-73
2021/03/20 09:38:34;;;;;;;3.50;1.50;;;;;;;7.09;43.42;102090.31;5015660;28;20480;-73
2021/03/20 09:41:01;;;;;;;2.30;1.17;;;;;;;6.99;40.34;102094.53;5033729;28;20091;-73
2021/03/20 09:43:39;;;;;;;4.13;1.40;;;;;;;7.59;41.83;102082.31;5039474;28;20627;-73
2021/03/20 09:46:39;;;;;;;3.40;1.20;;;;;;;7.88;37.96;102083.59;5041592;28;20071;-74
2021/03/20 09:49:06;;;;;;;3.70;1.40;;;;;;;6.69;39.54;102073.84;5016736;28;20049;-73
2021/03/20 09:51:48;;;;;;;2.33;1.20;;;;;;;6.74;39.86;102077.44;5022471;28;20049;-74
2021/03/20 09:54:35;;;;;;;2.13;1.30;;;;;;;7.00;39.83;102071.75;5018679;28;20041;-73
2021/03/20 09:57:27;;;;;;;3.30;1.20;;;;;;;7.11;39.01;102077.19;5016294;28;20041;-74
2021/03/20 09:59:56;;;;;;;1.47;1.10;;;;;;;7.41;41.15;102079.44;5043181;28;20041;-74
2021/03/20 10:02:22;;;;;;;3.17;1.23;;;;;;;6.85;39.10;102082.88;5038341;28;20052;-73
2021/03/20 10:04:55;;;;;;;3.87;1.57;;;;;;;6.65;40.63;102076.41;5040687;28;20102;-74
2021/03/20 10:07:21;;;;;;;2.70;1.27;;;;;;;6.89;41.42;102071.56;5025444;28;20502;-73
2021/03/20 10:09:59;;;;;;;3.17;2.00;;;;;;;6.03;40.54;102069.06;5043200;28;20040;-74
2021/03/20 10:12:35;;;;;;;3.60;2.00;;;;;;;5.02;42.43;102071.09;5035866;28;20041;-73
2021/03/20 10:15:14;;;;;;;4.93;1.90;;;;;;;4.62;43.31;102061.31;5042327;28;20248;-73
2021/03/20 10:18:12;;;;;;;3.67;1.50;;;;;;;4.81;44.18;102050.50;5006419;28;20044;-74
2021/03/20 10:20:45;;;;;;;7.13;2.67;;;;;;;5.19;43.89;102053.16;5038855;28;20383;-73
2021/03/20 10:23:44;;;;;;;2.40;1.20;;;;;;;5.34;46.39;102061.38;5025299;28;20276;-74
2021/03/20 10:26:28;;;;;;;3.90;1.50;;;;;;;5.63;42.62;102056.78;5012403;28;20049;-73
2021/03/20 10:28:58;;;;;;;3.13;1.60;;;;;;;5.18;42.85;102054.03;5039730;28;20103;-73
2021/03/20 10:31:25;;;;;;;3.70;1.87;;;;;;;4.68;42.72;102056.25;5017342;28;20071;-73
2021/03/20 10:34:11;;;;;;;6.20;2.10;;;;;;;4.64;43.45;102054.44;5021850;28;20049;-73
2021/03/20 10:36:43;;;;;;;4.43;2.23;;;;;;;4.24;44.14;102040.28;5029879;28;20034;-73
2021/03/20 10:39:21;;;;;;;3.17;2.10;;;;;;;4.24;43.68;102040.28;5020475;28;20099;-74
2021/03/20 10:41:47;;;;;;;5.40;2.13;;;;;;;4.40;44.02;102042.47;5027668;28;20052;-73
2021/03/20 10:44:17;;;;;;;2.90;1.50;;;;;;;4.90;43.19;102032.41;5010656;28;20049;-73
2021/03/20 10:47:00;;;;;;;4.83;1.90;;;;;;;5.00;44.48;102023.03;5008412;28;20045;-74
2021/03/20 10:49:26;;;;;;;2.40;1.97;;;;;;;5.42;44.58;102023.13;5025241;28;20051;-74
2021/03/20 10:51:56;;;;;;;2.57;1.90;;;;;;;6.23;42.80;102011.75;5004435;28;20044;-73
2021/03/20 10:54:31;;;;;;;4.47;1.70;;;;;;;7.24;45.33;102013.44;5021753;28;20044;-74
2021/03/20 10:57:07;;;;;;;4.47;1.67;;;;;;;8.06;39.89;102008.38;5037546;28;20532;-73
2021/03/20 10:59:39;;;;;;;2.57;1.83;;;;;;;8.39;37.76;102003.50;5004734;28;20068;-74
2021/03/20 11:02:34;;;;;;;5.63;1.83;;;;;;;8.72;37.44;102008.19;5040467;28;20033;-73
2021/03/20 11:05:21;;;;;;;4.00;2.30;;;;;;;7.59;35.50;102009.56;5011635;28;20495;-73
2021/03/20 11:07:54;;;;;;;4.87;2.90;;;;;;;7.36;38.56;102012.72;5044051;28;20032;-73
2021/03/20 11:10:58;;;;;;;4.17;2.00;;;;;;;6.86;36.91;102011.09;4987071;28;20055;-74
2021/03/20 11:13:38;;;;;;;3.40;2.00;;;;;;;6.80;38.65;102015.34;5007098;28;20785;-73
2021/03/20 11:16:06;;;;;;;2.47;1.50;;;;;;;6.65;38.82;102014.25;5027576;28;20056;-74
2021/03/20 11:18:36;;;;;;;2.70;1.70;;;;;;;6.49;37.83;101999.97;5041723;28;20052;-74
2021/03/20 11:21:17;;;;;;;3.17;1.73;;;;;;;7.28;40.19;102000.34;5027397;28;20167;-74
2021/03/20 11:23:44;;;;;;;3.73;1.70;;;;;;;7.50;37.49;102000.69;5051488;22;20065;-73
2021/03/20 11:26:24;;;;;;;6.27;3.13;;;;;;;6.76;34.10;102004.81;4986361;28;20368;-73
2021/03/20 11:28:51;;;;;;;3.87;1.50;;;;;;;7.90;38.74;101989.78;4987704;28;20046;-73
2021/03/20 11:31:19;;;;;;;3.47;1.60;;;;;;;9.30;36.83;101981.38;4962808;28;20046;-73
2021/03/20 11:33:45;;;;;;;5.82;1.80;;;;;;;9.04;31.52;101973.31;4968959;28;20050;-74
2021/03/20 11:36:19;;;;;;;2.13;1.60;;;;;;;9.40;31.15;101969.13;4993442;28;20093;-74
2021/03/20 11:38:46;;;;;;;3.60;1.80;;;;;;;9.20;33.85;101976.94;4984304;28;20046;-74
2021/03/20 11:41:12;;;;;;;3.25;1.60;;;;;;;9.86;31.92;101970.22;4984119;28;20467;-73
2021/03/20 11:43:43;;;;;;;2.92;1.40;;;;;;;10.80;34.32;101966.88;5001965;28;20049;-74
2021/03/20 11:46:26;;;;;;;3.40;1.58;;;;;;;9.56;32.32;101970.97;4988052;28;20034;-73
2021/03/20 11:48:54;;;;;;;1.70;1.30;;;;;;;8.39;31.81;101960.47;4973506;28;20129;-74
2021/03/20 11:51:26;;;;;;;2.80;1.65;;;;;;;7.63;33.71;101955.25;4974878;28;20038;-73
2021/03/20 11:53:55;;;;;;;3.78;2.13;;;;;;;7.58;33.63;101951.69;4987486;28;20104;-73
2021/03/20 11:56:28;;;;;;;3.25;1.88;;;;;;;7.56;34.31;101954.28;4984743;28;20054;-73
2021/03/20 11:58:58;;;;;;;5.03;1.90;;;;;;;7.88;35.35;101952.03;4980275;28;20050;-73
2021/03/20 12:01:30;;;;;;;2.47;1.40;;;;;;;8.02;35.70;101946.94;4967371;28;20076;-72
2021/03/20 12:04:00;;;;;;;2.92;1.85;;;;;;;8.00;32.58;101964.47;4984144;28;20057;-73
2021/03/20 12:06:31;;;;;;;2.90;1.65;;;;;;;6.85;34.33;101948.91;4970588;28;20399;-73